createdAt,value
2023-04-20T00:01:04.881Z,4.00
2023-04-20T00:03:33.081Z,4.00
2023-04-20T00:06:03.195Z,4.10
2023-04-20T00:08:30.435Z,4.10
2023-04-20T00:10:57.386Z,4.30
2023-04-20T00:13:24.320Z,4.40
2023-04-20T00:15:51.265Z,4.30
2023-04-20T00:18:18.180Z,4.40
2023-04-20T00:20:45.827Z,4.40
2023-04-20T00:23:12.782Z,4.30
2023-04-20T00:25:39.740Z,4.40
2023-04-20T00:28:06.782Z,4.40
2023-04-20T00:30:33.995Z,4.40
2023-04-20T00:33:01.559Z,4.40
2023-04-20T00:35:28.790Z,3.60
2023-04-20T00:37:55.801Z,3.30
2023-04-20T00:40:25.959Z,3.40
2023-04-20T00:42:53.045Z,3.50
2023-04-20T00:45:22.178Z,3.30
2023-04-20T00:47:49.198Z,3.20
2023-04-20T00:50:17.461Z,3.20
2023-04-20T00:52:44.941Z,3.30
2023-04-20T00:55:12.670Z,3.20
2023-04-20T00:57:40.266Z,3.20
2023-04-20T01:00:08.427Z,3.20
2023-04-20T01:02:35.493Z,3.10
2023-04-20T01:05:03.983Z,3.10
2023-04-20T01:07:31.021Z,3.00
2023-04-20T01:09:57.968Z,3.00
2023-04-20T01:12:24.894Z,3.00
2023-04-20T01:14:51.993Z,2.90
2023-04-20T01:17:20.244Z,2.80
2023-04-20T01:19:47.378Z,2.80
2023-04-20T01:22:21.375Z,2.80
2023-04-20T01:24:48.936Z,2.70
2023-04-20T01:27:17.098Z,2.70
2023-04-20T01:29:45.171Z,2.60
2023-04-20T01:32:12.896Z,2.60
2023-04-20T01:34:40.796Z,2.60
2023-04-20T01:37:08.932Z,2.60
2023-04-20T01:39:40.264Z,2.50
2023-04-20T01:42:07.564Z,2.40
2023-04-20T01:44:34.537Z,2.40
2023-04-20T01:47:01.554Z,2.30
2023-04-20T01:49:28.612Z,2.20
2023-04-20T01:51:55.777Z,2.20
2023-04-20T01:54:22.803Z,2.10
2023-04-20T01:56:49.743Z,2.10
2023-04-20T01:59:17.276Z,2.00
2023-04-20T02:01:44.435Z,2.00
2023-04-20T02:04:11.526Z,1.90
2023-04-20T02:06:40.924Z,1.90
2023-04-20T02:09:09.905Z,1.80
2023-04-20T02:11:36.867Z,1.80
2023-04-20T02:14:06.280Z,1.80
2023-04-20T02:16:33.369Z,1.70
2023-04-20T02:19:00.324Z,1.70
2023-04-20T02:21:27.966Z,1.70
2023-04-20T02:23:55.120Z,1.60
2023-04-20T02:26:22.280Z,1.50
2023-04-20T02:28:49.302Z,1.50
2023-04-20T02:31:16.256Z,1.50
2023-04-20T02:33:45.196Z,1.40
2023-04-20T02:36:12.100Z,1.40
2023-04-20T02:38:40.821Z,1.40
2023-04-20T02:41:07.847Z,1.40
2023-04-20T02:43:36.317Z,1.40
2023-04-20T02:46:04.860Z,1.30
2023-04-20T02:48:32.092Z,1.30
2023-04-20T02:50:59.686Z,0.90
2023-04-20T02:53:31.719Z,0.70
2023-04-20T02:56:11.592Z,0.70
2023-04-20T02:58:52.050Z,0.70
2023-04-20T03:01:22.863Z,0.70
2023-04-20T03:03:55.234Z,0.70
2023-04-20T03:08:54.984Z,0.70
2023-04-20T03:11:45.754Z,0.90
2023-04-20T03:14:20.550Z,0.80
2023-04-20T03:16:47.669Z,0.90
2023-04-20T03:19:16.324Z,0.90
2023-04-20T03:21:45.256Z,1.00
2023-04-20T03:24:12.213Z,1.00
2023-04-20T03:26:40.408Z,1.10
2023-04-20T03:29:30.299Z,1.20
2023-04-20T03:31:57.653Z,1.40
2023-04-20T03:34:26.171Z,1.50
2023-04-20T03:36:54.198Z,1.20
2023-04-20T03:39:22.516Z,1.40
2023-04-20T03:41:49.534Z,2.00
2023-04-20T03:44:16.896Z,2.10
2023-04-20T03:46:43.881Z,2.00
2023-04-20T03:49:10.874Z,2.20
2023-04-20T03:51:39.611Z,2.20
2023-04-20T03:54:06.636Z,2.30
2023-04-20T03:56:34.161Z,2.00
2023-04-20T03:59:01.285Z,1.40
2023-04-20T04:01:28.497Z,1.40
2023-04-20T04:03:55.828Z,1.40
2023-04-20T04:06:23.050Z,1.50
2023-04-20T04:08:51.363Z,1.60
2023-04-20T04:11:18.398Z,1.70
2023-04-20T04:13:45.730Z,1.70
2023-04-20T04:16:12.925Z,1.60
2023-04-20T04:18:45.609Z,1.40
2023-04-20T04:21:12.745Z,1.40
2023-04-20T04:23:44.172Z,1.50
2023-04-20T04:26:21.361Z,1.50
2023-04-20T04:28:49.400Z,1.50
2023-04-20T04:31:21.888Z,1.30
2023-04-20T04:33:49.619Z,1.50
2023-04-20T04:36:30.416Z,1.50
2023-04-20T04:38:59.248Z,1.80
2023-04-20T04:41:27.542Z,2.10
2023-04-20T04:44:01.095Z,2.20
2023-04-20T04:46:30.551Z,2.20
2023-04-20T04:49:01.197Z,2.40
2023-04-20T04:51:28.602Z,2.40
2023-04-20T04:53:55.652Z,2.90
2023-04-20T04:56:23.484Z,2.90
2023-04-20T04:58:50.623Z,2.70
2023-04-20T05:01:17.694Z,2.80
2023-04-20T05:03:44.753Z,2.70
2023-04-20T05:06:11.792Z,2.90
2023-04-20T05:08:38.804Z,3.00
2023-04-20T05:11:05.836Z,3.90
2023-04-20T05:13:32.843Z,5.00
2023-04-20T05:15:59.959Z,5.90
2023-04-20T05:18:26.986Z,7.50
2023-04-20T05:20:54.396Z,8.80
2023-04-20T05:23:21.319Z,9.90
2023-04-20T05:25:48.267Z,9.70
2023-04-20T05:28:15.466Z,9.60
2023-04-20T05:30:42.569Z,9.20
2023-04-20T05:33:09.571Z,9.30
2023-04-20T05:35:36.560Z,10.50
2023-04-20T05:38:06.250Z,11.40
2023-04-20T05:40:37.308Z,12.50
2023-04-20T05:43:04.305Z,12.70
2023-04-20T05:45:33.034Z,13.40
2023-04-20T05:48:00.284Z,14.00
2023-04-20T05:50:27.623Z,14.40
2023-04-20T05:52:54.533Z,13.30
2023-04-20T05:55:22.880Z,12.10
2023-04-20T06:00:20.240Z,10.20
2023-04-20T06:02:47.490Z,8.90
2023-04-20T06:05:14.947Z,8.90
2023-04-20T06:07:42.027Z,8.40
2023-04-20T06:10:09.529Z,8.50
2023-04-20T06:12:36.694Z,8.60
2023-04-20T06:15:06.754Z,9.30
2023-04-20T06:17:37.468Z,9.60
2023-04-20T06:20:07.132Z,9.20
2023-04-20T06:22:34.364Z,8.80
2023-04-20T06:25:01.384Z,9.00
2023-04-20T06:27:28.355Z,9.30
2023-04-20T06:29:55.357Z,9.00
2023-04-20T06:32:22.338Z,8.80
2023-04-20T06:34:50.522Z,8.90
2023-04-20T06:37:17.579Z,8.70
2023-04-20T06:39:45.213Z,8.40
2023-04-20T06:42:12.361Z,8.70
2023-04-20T06:44:41.101Z,9.20
2023-04-20T06:47:08.198Z,9.10
2023-04-20T06:49:37.528Z,9.00
2023-04-20T06:52:04.831Z,8.50
2023-04-20T06:54:32.787Z,9.10
2023-04-20T06:57:01.322Z,9.80
2023-04-20T06:59:28.324Z,9.70
2023-04-20T07:01:55.285Z,9.60
2023-04-20T07:04:22.413Z,9.80
2023-04-20T07:06:51.711Z,10.30
2023-04-20T07:09:20.786Z,11.20
2023-04-20T07:11:47.741Z,10.80
2023-04-20T07:14:14.729Z,10.40
2023-04-20T07:16:41.784Z,10.00
2023-04-20T07:19:08.887Z,9.20
2023-04-20T07:33:53.370Z,10.60
2023-04-20T07:36:21.627Z,10.40
2023-04-20T07:38:49.848Z,10.10
2023-04-20T07:41:16.881Z,10.00
2023-04-20T07:43:44.877Z,10.10
2023-04-20T07:46:21.333Z,10.00
2023-04-20T07:48:48.967Z,9.50
2023-04-20T07:51:16.043Z,9.60
2023-04-20T07:53:44.176Z,9.20
2023-04-20T08:01:40.592Z,8.30
2023-04-20T08:04:07.973Z,8.40
2023-04-20T08:06:35.265Z,8.30
2023-04-20T08:09:03.901Z,8.40
2023-04-20T08:11:30.867Z,8.20
2023-04-20T08:13:58.507Z,7.90
2023-04-20T08:16:25.745Z,7.80
2023-04-20T08:18:52.842Z,7.80
2023-04-20T08:21:25.307Z,7.60
2023-04-20T08:23:53.228Z,7.90
2023-04-20T08:26:20.866Z,7.90
2023-04-20T08:28:47.851Z,7.80
2023-04-20T08:31:15.195Z,7.60
2023-04-20T08:33:42.332Z,7.60
2023-04-20T08:36:09.476Z,7.50
2023-04-20T08:38:36.477Z,7.40
2023-04-20T08:41:03.733Z,7.60
2023-04-20T08:43:31.976Z,7.70
2023-04-20T08:46:02.874Z,7.80
2023-04-20T08:48:42.037Z,7.90
2023-04-20T08:51:09.365Z,8.00
2023-04-20T08:53:36.249Z,7.80
2023-04-20T08:56:03.758Z,7.80
2023-04-20T08:58:32.757Z,7.90
2023-04-20T09:01:02.776Z,7.90
2023-04-20T09:03:39.318Z,7.90
2023-04-20T09:06:14.985Z,7.80
2023-04-20T09:08:43.928Z,7.90
2023-04-20T09:11:27.215Z,8.10
2023-04-20T09:14:15.199Z,8.00
2023-04-20T09:16:57.001Z,7.90
2023-04-20T09:19:31.234Z,8.00
2023-04-20T09:22:02.384Z,8.00
2023-04-20T09:24:40.756Z,8.00
2023-04-20T09:27:19.044Z,8.10
2023-04-20T09:30:01.089Z,8.20
2023-04-20T09:32:29.072Z,8.30
2023-04-20T09:34:56.978Z,8.40
2023-04-20T09:37:24.144Z,8.40
2023-04-20T09:39:51.451Z,8.40
2023-04-20T09:42:18.424Z,8.40
2023-04-20T09:44:45.392Z,8.40
2023-04-20T09:47:21.462Z,8.20
2023-04-20T09:49:48.570Z,8.40
2023-04-20T09:52:19.291Z,8.20
2023-04-20T09:54:46.629Z,8.20
2023-04-20T09:57:14.819Z,8.30
2023-04-20T09:59:47.231Z,8.30
2023-04-20T10:02:14.874Z,8.30
2023-04-20T10:04:58.745Z,8.30
2023-04-20T10:07:35.206Z,8.20
2023-04-20T10:10:15.809Z,8.30
2023-04-20T10:12:51.217Z,8.20
2023-04-20T10:15:18.681Z,8.30
2023-04-20T10:17:46.162Z,8.40
2023-04-20T10:20:24.822Z,8.30
2023-04-20T10:22:53.532Z,8.30
2023-04-20T10:25:24.992Z,8.30
2023-04-20T10:28:01.740Z,8.40
2023-04-20T10:30:29.977Z,8.20
2023-04-20T10:33:08.312Z,8.00
2023-04-20T10:36:01.851Z,7.90
2023-04-20T10:38:33.333Z,7.80
2023-04-20T10:41:27.203Z,7.80
2023-04-20T10:43:54.200Z,7.90
2023-04-20T10:46:25.217Z,8.00
2023-04-20T10:51:22.054Z,8.50
2023-04-20T10:54:08.643Z,8.50
2023-04-20T10:56:46.387Z,8.70
2023-04-20T10:59:23.462Z,8.70
2023-04-20T11:01:51.800Z,8.80
2023-04-20T11:04:19.620Z,8.90
2023-04-20T11:06:48.403Z,8.80
2023-04-20T11:09:26.441Z,8.60
2023-04-20T11:12:04.971Z,8.60
2023-04-20T11:14:34.701Z,8.60
2023-04-20T11:17:02.217Z,8.90
2023-04-20T11:19:32.808Z,9.00
2023-04-20T11:22:03.796Z,8.90
2023-04-20T11:24:37.503Z,8.90
2023-04-20T11:27:04.985Z,8.80
2023-04-20T11:29:39.843Z,8.90
2023-04-20T11:32:11.972Z,9.00
2023-04-20T11:34:40.377Z,9.10
2023-04-20T11:37:10.739Z,9.20
2023-04-20T11:39:38.254Z,9.20
2023-04-20T11:42:06.289Z,9.40
2023-04-20T11:44:34.376Z,9.50
2023-04-20T11:47:01.958Z,9.60
2023-04-20T11:49:29.843Z,9.70
2023-04-20T11:51:56.889Z,9.60
2023-04-20T11:56:52.179Z,9.60
2023-04-20T11:59:20.601Z,9.70
2023-04-20T12:01:48.380Z,9.60
2023-04-20T12:04:16.289Z,9.40
2023-04-20T12:06:44.670Z,9.30
2023-04-20T12:09:12.800Z,9.50
2023-04-20T12:11:39.711Z,9.40
2023-04-20T12:14:06.956Z,9.20
2023-04-20T12:16:34.131Z,9.10
2023-04-20T12:19:01.175Z,8.90
2023-04-20T12:21:28.139Z,8.70
2023-04-20T12:23:55.131Z,8.70
2023-04-20T12:26:27.021Z,8.90
2023-04-20T12:29:02.414Z,8.80
2023-04-20T12:31:29.429Z,8.90
2023-04-20T12:33:56.614Z,9.00
2023-04-20T12:36:23.577Z,9.00
2023-04-20T12:38:55.739Z,8.90
2023-04-20T12:41:23.538Z,9.00
2023-04-20T12:43:51.395Z,8.90
2023-04-20T12:46:18.547Z,8.80
2023-04-20T12:48:46.074Z,8.80
2023-04-20T12:51:14.537Z,8.80
2023-04-20T12:53:42.183Z,8.90
2023-04-20T12:56:09.271Z,8.90
2023-04-20T12:58:37.066Z,8.90
2023-04-20T13:01:04.356Z,9.00
2023-04-20T13:03:31.776Z,9.10
2023-04-20T13:06:00.413Z,9.00
2023-04-20T13:08:27.422Z,8.70
2023-04-20T13:10:54.506Z,8.70
2023-04-20T13:13:21.483Z,8.60
2023-04-20T13:15:48.523Z,8.40
2023-04-20T13:18:15.519Z,8.40
2023-04-20T13:20:42.547Z,8.30
2023-04-20T13:23:09.568Z,8.40
2023-04-20T13:25:38.643Z,8.40
2023-04-20T13:28:06.100Z,8.50
2023-04-20T13:30:33.298Z,8.50
2023-04-20T13:33:00.586Z,8.50
2023-04-20T13:35:27.763Z,8.50
2023-04-20T13:37:54.786Z,8.50
2023-04-20T13:40:21.984Z,8.50
2023-04-20T13:42:49.737Z,8.50
2023-04-20T13:45:16.978Z,8.50
2023-04-20T13:47:44.293Z,8.50
2023-04-20T13:50:11.530Z,8.50
2023-04-20T13:52:38.482Z,8.40
2023-04-20T13:55:06.128Z,8.40
2023-04-20T13:57:33.171Z,8.40
2023-04-20T14:00:01.309Z,8.40
2023-04-20T14:02:32.766Z,8.30
2023-04-20T14:04:59.993Z,8.30
2023-04-20T14:07:26.981Z,8.40
2023-04-20T14:09:56.434Z,8.40
2023-04-20T14:12:23.861Z,8.40
2023-04-20T14:14:51.061Z,8.60
2023-04-20T14:17:18.102Z,8.70
2023-04-20T14:19:45.300Z,8.60
2023-04-20T14:22:13.451Z,8.60
2023-04-20T14:24:40.735Z,8.70
2023-04-20T14:27:07.737Z,8.70
2023-04-20T14:29:34.715Z,8.70
2023-04-20T14:32:03.703Z,8.70
2023-04-20T14:34:30.846Z,8.70
2023-04-20T14:36:57.864Z,8.70
2023-04-20T14:39:24.777Z,8.60
2023-04-20T14:41:51.708Z,8.60
2023-04-20T14:44:18.864Z,8.30
2023-04-20T14:46:46.108Z,8.30
2023-04-20T14:49:13.165Z,8.30
2023-04-20T14:51:40.180Z,8.40
2023-04-20T14:54:07.129Z,8.40
2023-04-20T14:56:34.278Z,8.40
2023-04-20T14:59:02.276Z,8.40
2023-04-20T15:01:29.360Z,8.50
2023-04-20T15:03:56.726Z,8.40
2023-04-20T15:06:23.889Z,8.40
2023-04-20T15:08:54.574Z,8.40
2023-04-20T15:11:21.545Z,8.30
2023-04-20T15:13:49.488Z,8.30
2023-04-20T15:16:16.573Z,8.30
2023-04-20T15:18:43.588Z,8.30
2023-04-20T15:21:11.645Z,8.40
2023-04-20T15:23:38.669Z,8.30
2023-04-20T15:26:08.161Z,8.30
2023-04-20T15:28:35.139Z,8.30
2023-04-20T15:31:02.127Z,8.20
2023-04-20T15:33:29.069Z,8.10
2023-04-20T15:35:55.995Z,8.00
2023-04-20T15:38:23.100Z,8.00
2023-04-20T15:40:51.474Z,8.00
2023-04-20T15:43:18.420Z,8.00
2023-04-20T15:45:45.449Z,7.90
2023-04-20T15:48:12.495Z,7.90
2023-04-20T15:50:39.498Z,7.90
2023-04-20T15:53:07.309Z,7.90
2023-04-20T15:55:38.139Z,7.80
2023-04-20T15:58:05.171Z,7.80
2023-04-20T16:00:32.228Z,7.80
2023-04-20T16:03:01.425Z,7.90
2023-04-20T16:05:28.779Z,7.60
2023-04-20T16:07:55.838Z,7.70
2023-04-20T16:10:23.611Z,7.70
2023-04-20T16:12:51.348Z,7.70
2023-04-20T16:15:18.619Z,7.90
2023-04-20T16:17:45.662Z,7.80
2023-04-20T16:20:13.586Z,7.50
2023-04-20T16:22:40.722Z,7.30
2023-04-20T16:25:09.422Z,7.30
2023-04-20T16:27:36.524Z,7.10
2023-04-20T16:30:03.873Z,7.10
2023-04-20T16:32:31.417Z,7.10
2023-04-20T16:34:58.373Z,7.10
2023-04-20T16:37:25.410Z,7.10
2023-04-20T16:39:52.378Z,7.10
2023-04-20T16:42:19.470Z,7.10
2023-04-20T16:44:46.466Z,7.10
2023-04-20T16:47:13.438Z,7.00
2023-04-20T16:49:40.467Z,7.00
2023-04-20T16:52:08.662Z,7.00
2023-04-20T16:54:35.642Z,7.00
2023-04-20T16:57:02.620Z,7.00
2023-04-20T16:59:29.635Z,6.90
2023-04-20T17:01:56.635Z,6.90
2023-04-20T17:04:24.011Z,6.80
2023-04-20T17:06:51.841Z,6.90
2023-04-20T17:09:18.988Z,6.90
2023-04-20T17:11:46.051Z,6.90
2023-04-20T17:14:13.069Z,6.90
2023-04-20T17:16:40.063Z,7.00
2023-04-20T17:19:07.046Z,7.00
2023-04-20T17:21:34.004Z,7.00
2023-04-20T17:24:01.017Z,7.00
2023-04-20T17:26:28.008Z,7.00
2023-04-20T17:28:55.015Z,7.00
2023-04-20T17:31:22.171Z,7.10
2023-04-20T17:33:49.201Z,7.20
2023-04-20T17:36:16.262Z,7.30
2023-04-20T17:38:43.367Z,7.10
2023-04-20T17:41:10.497Z,7.20
2023-04-20T17:43:40.317Z,7.10
2023-04-20T17:46:08.112Z,7.10
2023-04-20T17:48:35.214Z,7.20
2023-04-20T17:51:02.422Z,7.20
2023-04-20T17:53:29.422Z,7.20
2023-04-20T17:55:56.444Z,7.00
2023-04-20T17:58:24.941Z,7.00
2023-04-20T18:00:52.157Z,6.90
2023-04-20T18:03:20.054Z,6.90
2023-04-20T18:05:47.350Z,6.90
2023-04-20T18:08:15.500Z,7.00
2023-04-20T18:10:42.579Z,7.10
2023-04-20T18:13:09.679Z,7.10
2023-04-20T18:15:36.767Z,7.10
2023-04-20T18:18:03.977Z,7.20
2023-04-20T18:20:32.532Z,7.30
2023-04-20T18:22:59.740Z,7.20
2023-04-20T18:25:27.039Z,7.30
2023-04-20T18:27:54.023Z,7.30
2023-04-20T18:30:21.051Z,7.40
2023-04-20T18:32:48.080Z,7.30
2023-04-20T19:26:59.813Z,7.10
2023-04-20T19:29:27.908Z,7.00
2023-04-20T19:31:55.074Z,7.00
2023-04-20T19:34:22.114Z,7.10
2023-04-20T19:36:49.074Z,7.00
2023-04-20T19:39:16.108Z,7.10
2023-04-20T19:41:43.271Z,7.00
2023-04-20T19:44:12.083Z,7.10
2023-04-20T19:46:40.567Z,7.20
2023-04-20T19:49:07.818Z,7.30
2023-04-20T19:51:34.848Z,7.20
2023-04-20T19:54:03.636Z,7.20
2023-04-20T19:56:31.544Z,7.30
2023-04-20T19:58:58.600Z,7.30
2023-04-20T20:01:25.963Z,7.30
2023-04-20T20:03:53.508Z,7.40
2023-04-20T20:06:21.648Z,7.40
2023-04-20T20:08:48.744Z,7.30
2023-04-20T20:11:16.013Z,7.50
2023-04-20T20:13:43.094Z,7.40
2023-04-20T20:16:10.558Z,7.50
2023-04-20T20:18:38.154Z,7.50
2023-04-20T20:21:05.257Z,7.60
2023-04-20T20:23:34.992Z,7.60
2023-04-20T20:26:02.708Z,7.70
2023-04-20T20:28:29.769Z,7.60
2023-04-20T20:30:57.135Z,7.70
2023-04-20T20:33:24.466Z,7.70
2023-04-20T20:35:52.559Z,7.80
2023-04-20T20:38:20.919Z,7.70
2023-04-20T20:40:50.474Z,7.70
2023-04-20T20:43:19.053Z,7.70
2023-04-20T20:45:47.298Z,7.60
2023-04-20T20:48:14.357Z,7.70
2023-04-20T20:50:41.420Z,7.70
2023-04-20T20:53:08.943Z,7.80
2023-04-20T20:55:36.003Z,7.80
2023-04-20T20:58:02.959Z,7.70
2023-04-20T21:00:30.165Z,7.80
2023-04-20T21:02:57.406Z,7.80
2023-04-20T21:05:24.624Z,7.70
2023-04-20T21:07:51.641Z,7.60
2023-04-20T21:10:18.874Z,7.60
2023-04-20T21:12:45.786Z,7.60
2023-04-20T21:15:12.839Z,7.60
2023-04-20T21:17:39.980Z,7.60
2023-04-20T21:20:09.163Z,7.50
2023-04-20T21:22:36.125Z,7.40
2023-04-20T21:25:04.948Z,7.20
2023-04-20T21:27:31.995Z,7.20
2023-04-20T21:29:58.935Z,7.20
2023-04-20T21:32:26.406Z,7.10
2023-04-20T22:46:17.222Z,6.20
2023-04-20T22:48:47.171Z,6.10
2023-04-20T22:51:18.307Z,5.80
2023-04-20T22:53:45.325Z,5.60
2023-04-20T22:56:12.273Z,5.40
2023-04-20T22:58:39.551Z,5.20
2023-04-20T23:01:06.633Z,5.20
2023-04-20T23:03:33.893Z,5.10
2023-04-20T23:06:01.003Z,5.20
2023-04-20T23:08:28.316Z,5.20
2023-04-20T23:10:55.412Z,5.30
2023-04-20T23:13:24.594Z,5.30
2023-04-20T23:15:52.011Z,5.30
2023-04-20T23:18:19.193Z,5.20
2023-04-20T23:20:46.161Z,5.20
2023-04-20T23:23:13.177Z,5.20
2023-04-20T23:25:40.298Z,5.20
2023-04-20T23:28:07.327Z,5.20
2023-04-20T23:30:34.294Z,5.20
2023-04-20T23:33:01.307Z,5.30
2023-04-20T23:35:28.317Z,5.30
2023-04-20T23:37:55.572Z,5.30
2023-04-20T23:40:22.648Z,5.30
2023-04-20T23:42:49.630Z,5.30
2023-04-20T23:45:16.639Z,5.30
2023-04-20T23:47:43.732Z,5.30
2023-04-20T23:50:10.969Z,5.30
2023-04-20T23:52:38.491Z,5.20
2023-04-20T23:55:06.183Z,5.20
2023-04-20T23:57:33.161Z,5.20
